Sprague, Nebraska
Current Conditions -  °F | °C
As of 4:54 PM on Thursday 20 Nov 2014 (Local Time) from KLNK Reporting Station
Clear Clear  
Wind Chill: 22°   Ceiling: Unl
Heat Index: 30°   Visibility: 10mi
Dew Point: 20°   Wind: 9mph
Humidity: 66%   Direction: 80°E
Pressure: 30.2"   Gusts: NA
Location:  40.63°N, 96.74°W
Report Text: KLNK 202254Z 08008KT 10SM CLR M01/M07 A3020 RMK AO2 SLP243 T10111067
Loading
Personal Weather Stations






























Interactive Weather Map New forecast layout! Learn more

10-Day Weather Forecast

Advertisements
Track Severe Weather on mobile